createdAt,value
2023-05-14T00:00:23.061Z,95815.91
2023-05-14T00:02:26.085Z,95790.25
2023-05-14T00:04:30.295Z,95863.97
2023-05-14T00:06:33.120Z,95868.16
2023-05-14T00:08:36.243Z,95867.34
2023-05-14T00:10:39.063Z,95659.22
2023-05-14T00:12:41.914Z,95866.19
2023-05-14T00:14:44.645Z,95763.00
2023-05-14T00:16:47.418Z,95795.97
2023-05-14T00:18:50.294Z,95852.09
2023-05-14T00:20:55.069Z,95853.19
2023-05-14T00:22:57.792Z,95856.84
2023-05-14T00:25:00.561Z,95853.06
2023-05-14T00:27:03.516Z,95851.34
2023-05-14T00:29:06.303Z,95838.66
2023-05-14T00:31:09.136Z,95845.69
2023-05-14T00:33:11.913Z,95857.75
2023-05-14T00:35:14.639Z,95857.19
2023-05-14T00:37:18.762Z,95855.13
2023-05-14T00:39:21.851Z,95844.94
2023-05-14T00:41:24.601Z,95842.91
2023-05-14T00:43:27.376Z,95845.13
2023-05-14T00:45:30.191Z,95844.56
2023-05-14T00:47:34.772Z,95845.63
2023-05-14T00:49:39.899Z,95841.16
2023-05-14T00:51:46.724Z,95828.69
2023-05-14T00:53:52.668Z,95840.06
2023-05-14T00:55:55.670Z,95843.44
2023-05-14T00:58:00.401Z,95738.75
2023-05-14T01:00:03.762Z,95825.31
2023-05-14T01:02:07.674Z,95834.47
2023-05-14T01:04:12.541Z,95829.63
2023-05-14T01:06:19.555Z,95813.78
2023-05-14T01:08:31.667Z,95806.44
2023-05-14T01:10:43.374Z,95821.47
2023-05-14T01:12:52.871Z,95823.94
2023-05-14T01:15:03.046Z,95817.91
2023-05-14T01:17:07.169Z,95818.44
2023-05-14T01:19:22.749Z,95818.06
2023-05-14T01:21:35.847Z,95811.59
2023-05-14T01:23:38.563Z,95813.22
2023-05-14T01:25:41.600Z,95815.19
2023-05-14T01:27:53.886Z,95811.47
2023-05-14T01:30:04.271Z,95811.28
2023-05-14T01:32:09.727Z,95798.16
2023-05-14T01:34:14.958Z,95788.81
2023-05-14T01:36:17.915Z,95803.63
2023-05-14T01:38:22.784Z,95799.38
2023-05-14T01:40:26.360Z,95803.63
2023-05-14T01:42:30.130Z,95808.97
2023-05-14T01:44:33.919Z,95804.69
2023-05-14T01:46:36.922Z,95763.53
2023-05-14T01:48:41.398Z,95806.28
2023-05-14T01:50:44.737Z,95803.09
2023-05-14T01:52:48.324Z,95810.16
2023-05-14T01:54:52.593Z,95805.06
2023-05-14T01:56:55.596Z,95817.91
2023-05-14T01:58:58.368Z,95804.22
2023-05-14T02:01:01.435Z,95801.03
2023-05-14T02:03:04.344Z,95797.22
2023-05-14T02:05:08.093Z,95800.84
2023-05-14T02:07:10.796Z,95803.31
2023-05-14T02:09:13.587Z,95805.53
2023-05-14T02:11:18.027Z,95800.53
2023-05-14T02:13:20.836Z,95729.25
2023-05-14T02:15:23.842Z,95797.78
2023-05-14T02:17:28.085Z,95801.06
2023-05-14T02:19:31.008Z,95787.91
2023-05-14T02:21:33.755Z,95804.69
2023-05-14T02:23:41.441Z,95791.59
2023-05-14T02:25:45.443Z,95790.78
2023-05-14T02:27:49.565Z,95789.72
2023-05-14T02:29:52.374Z,95796.75
2023-05-14T02:31:55.227Z,95795.28
2023-05-14T02:33:58.006Z,95797.28
2023-05-14T02:36:00.734Z,95805.94
2023-05-14T02:38:04.090Z,95799.78
2023-05-14T02:40:08.218Z,95802.28
2023-05-14T02:42:10.946Z,95803.63
2023-05-14T02:44:14.983Z,95806.66
2023-05-14T02:46:17.784Z,95800.59
2023-05-14T02:48:20.589Z,95802.38
2023-05-14T02:50:23.566Z,95804.63
2023-05-14T02:52:26.526Z,95808.41
2023-05-14T02:54:29.317Z,95810.00
2023-05-14T02:56:32.185Z,95804.13
2023-05-14T02:58:35.072Z,95813.25
2023-05-14T03:00:39.304Z,95817.56
2023-05-14T03:02:43.571Z,95806.84
2023-05-14T03:04:46.846Z,95783.94
2023-05-14T03:06:49.715Z,95810.69
2023-05-14T03:08:52.504Z,95805.34
2023-05-14T03:10:55.257Z,95802.88
2023-05-14T03:12:57.967Z,95802.03
2023-05-14T03:15:00.680Z,95803.81
2023-05-14T03:17:05.224Z,95806.81
2023-05-14T03:19:08.092Z,95799.41
2023-05-14T03:21:11.063Z,95801.09
2023-05-14T03:23:14.856Z,95796.53
2023-05-14T03:25:17.580Z,95796.31
2023-05-14T03:27:20.768Z,95793.16
2023-05-14T03:29:23.511Z,95807.94
2023-05-14T03:31:26.826Z,95793.59
2023-05-14T03:33:33.822Z,95802.06
2023-05-14T03:35:36.557Z,95800.78
2023-05-14T03:37:39.305Z,95804.88
2023-05-14T03:39:42.015Z,95803.47
2023-05-14T03:41:44.705Z,95785.06
2023-05-14T03:43:47.429Z,95808.34
2023-05-14T03:45:52.404Z,95806.94
2023-05-14T03:47:55.597Z,95806.56
2023-05-14T03:49:59.787Z,95809.00
2023-05-14T03:52:02.535Z,95812.00
2023-05-14T03:54:06.181Z,95810.97
2023-05-14T03:56:09.005Z,95807.63
2023-05-14T03:58:14.210Z,95796.13
2023-05-14T04:00:17.524Z,95805.88
2023-05-14T04:02:20.249Z,95802.94
2023-05-14T04:04:23.292Z,95804.72
2023-05-14T04:06:27.498Z,95803.41
2023-05-14T04:08:31.030Z,95805.69
2023-05-14T04:10:33.772Z,95805.19
2023-05-14T04:12:36.741Z,95810.25
2023-05-14T04:14:39.852Z,95804.88
2023-05-14T04:16:42.695Z,95802.72
2023-05-14T04:18:46.005Z,95797.13
2023-05-14T04:20:48.815Z,95804.72
2023-05-14T04:22:53.075Z,95758.00
2023-05-14T04:24:55.781Z,95800.69
2023-05-14T04:26:58.474Z,95804.69
2023-05-14T04:29:03.118Z,95800.50
2023-05-14T04:31:06.064Z,95801.34
2023-05-14T04:33:08.841Z,95805.31
2023-05-14T04:35:12.868Z,95798.25
2023-05-14T04:37:15.824Z,95793.25
2023-05-14T04:39:19.922Z,95804.38
2023-05-14T04:41:22.617Z,95800.38
2023-05-14T04:43:25.517Z,95795.97
2023-05-14T04:45:28.177Z,95809.72
2023-05-14T04:47:30.896Z,95803.88
2023-05-14T04:49:33.653Z,95809.47
2023-05-14T04:51:36.326Z,95802.16
2023-05-14T04:53:39.019Z,95813.13
2023-05-14T04:55:43.054Z,95809.91
2023-05-14T04:57:45.767Z,95753.50
2023-05-14T04:59:48.500Z,95818.84
2023-05-14T05:01:51.640Z,95817.69
2023-05-14T05:03:55.062Z,95811.31
2023-05-14T05:05:57.880Z,95695.13
2023-05-14T05:08:00.576Z,95764.34
2023-05-14T05:10:03.479Z,95681.03
2023-05-14T05:12:08.454Z,95812.00
2023-05-14T05:14:11.136Z,95796.06
2023-05-14T05:16:13.971Z,95795.44
2023-05-14T05:18:16.682Z,95796.16
2023-05-14T05:20:19.444Z,95792.25
2023-05-14T05:22:22.218Z,95794.81
2023-05-14T05:24:25.214Z,95794.25
2023-05-14T05:26:28.120Z,95798.88
2023-05-14T05:28:32.158Z,95800.75
2023-05-14T05:30:34.942Z,95793.88
2023-05-14T05:32:37.806Z,95792.69
2023-05-14T05:34:40.543Z,95798.28
2023-05-14T05:36:43.267Z,95801.88
2023-05-14T05:38:45.949Z,95800.81
2023-05-14T05:40:48.914Z,95802.88
2023-05-14T05:42:51.616Z,95801.75
2023-05-14T05:44:56.233Z,95755.09
2023-05-14T05:46:58.985Z,95802.66
2023-05-14T05:49:01.756Z,95795.72
2023-05-14T05:51:04.920Z,95791.91
2023-05-14T05:53:07.605Z,95786.66
2023-05-14T05:55:10.903Z,95728.09
2023-05-14T05:57:13.661Z,95789.09
2023-05-14T05:59:16.314Z,95789.00
2023-05-14T06:01:20.580Z,95791.47
2023-05-14T06:03:23.293Z,95777.81
2023-05-14T06:05:26.110Z,95785.78
2023-05-14T06:07:28.782Z,95792.09
2023-05-14T06:09:31.452Z,95782.31
2023-05-14T06:11:34.152Z,95761.38
2023-05-14T06:13:36.830Z,95714.78
2023-05-14T06:15:39.463Z,95786.81
2023-05-14T06:17:43.555Z,95789.09
2023-05-14T06:19:46.276Z,95788.63
2023-05-14T06:21:48.976Z,95794.84
2023-05-14T06:23:51.884Z,95798.97
2023-05-14T06:25:54.616Z,95771.50
2023-05-14T06:27:57.293Z,95789.88
2023-05-14T06:29:59.913Z,95796.88
2023-05-14T06:32:03.632Z,95791.47
2023-05-14T06:34:08.034Z,95775.78
2023-05-14T06:36:11.098Z,95794.78
2023-05-14T06:38:13.765Z,95793.47
2023-05-14T06:40:16.595Z,95797.47
2023-05-14T06:42:19.317Z,95802.13
2023-05-14T06:44:23.495Z,95777.09
2023-05-14T06:46:26.162Z,95781.72
2023-05-14T06:48:29.547Z,95765.50
2023-05-14T06:50:33.636Z,95806.00
2023-05-14T06:52:36.309Z,95804.63
2023-05-14T06:54:39.332Z,95810.81
2023-05-14T06:56:42.016Z,95803.59
2023-05-14T06:58:44.698Z,95812.50
2023-05-14T07:00:47.322Z,95811.41
2023-05-14T07:02:50.051Z,95772.03
2023-05-14T07:04:52.718Z,95775.97
2023-05-14T07:06:56.686Z,95796.00
2023-05-14T07:08:59.884Z,95803.06
2023-05-14T07:11:02.651Z,95799.28
2023-05-14T07:13:05.541Z,95765.56
2023-05-14T07:15:09.548Z,95790.16
2023-05-14T07:17:12.701Z,95660.97
2023-05-14T07:19:15.449Z,95786.66
2023-05-14T07:21:18.282Z,95797.72
2023-05-14T07:23:22.313Z,95771.53
2023-05-14T07:25:24.973Z,95788.00
2023-05-14T07:27:27.692Z,95797.19
2023-05-14T07:29:30.807Z,95791.78
2023-05-14T07:31:33.472Z,95789.09
2023-05-14T07:33:36.748Z,95792.59
2023-05-14T07:35:39.517Z,95793.16
2023-05-14T07:37:42.866Z,95786.66
2023-05-14T07:39:46.842Z,95792.34
2023-05-14T07:41:50.152Z,95796.34
2023-05-14T07:43:52.776Z,95790.97
2023-05-14T07:45:55.835Z,95785.88
2023-05-14T07:47:58.662Z,95784.75
2023-05-14T07:50:01.434Z,95789.03
2023-05-14T07:52:04.242Z,95790.66
2023-05-14T07:54:06.931Z,95790.69
2023-05-14T07:56:11.021Z,95707.34
2023-05-14T07:58:13.666Z,95752.13
2023-05-14T08:00:17.048Z,95792.88
2023-05-14T08:02:19.834Z,95786.09
2023-05-14T08:04:23.411Z,95788.56
2023-05-14T08:06:27.508Z,95781.78
2023-05-14T08:08:30.258Z,95788.00
2023-05-14T08:10:33.053Z,95775.03
2023-05-14T08:12:37.209Z,95791.19
2023-05-14T08:14:39.988Z,95767.47
2023-05-14T08:16:42.753Z,95784.50
2023-05-14T08:18:45.610Z,95792.34
2023-05-14T08:20:48.392Z,95792.25
2023-05-14T08:22:51.132Z,95780.97
2023-05-14T08:24:53.934Z,95783.69
2023-05-14T08:26:56.866Z,95749.19
2023-05-14T08:29:00.992Z,95775.03
2023-05-14T08:31:03.724Z,95786.13
2023-05-14T08:33:06.446Z,95775.53
2023-05-14T08:35:09.988Z,95782.56
2023-05-14T08:37:12.739Z,95771.66
2023-05-14T08:39:15.579Z,95786.25
2023-05-14T08:41:18.735Z,95784.63
2023-05-14T08:43:27.340Z,95778.94
2023-05-14T08:45:34.164Z,95754.94
2023-05-14T08:47:37.667Z,95767.94
2023-05-14T08:49:43.097Z,95783.56
2023-05-14T08:51:47.138Z,95768.72
2023-05-14T08:53:49.892Z,95779.00
2023-05-14T08:55:54.598Z,95782.13
2023-05-14T08:57:57.368Z,95784.81
2023-05-14T09:00:00.352Z,95681.28
2023-05-14T09:02:06.502Z,95781.75
2023-05-14T09:04:10.410Z,95776.63
2023-05-14T09:06:15.013Z,95775.44
2023-05-14T09:08:17.764Z,95772.53
2023-05-14T09:10:21.073Z,95774.69
2023-05-14T09:12:24.213Z,95718.28
2023-05-14T09:14:26.931Z,95781.00
2023-05-14T09:16:29.793Z,95772.31
2023-05-14T09:18:34.019Z,95768.25
2023-05-14T09:20:36.887Z,95686.72
2023-05-14T09:22:40.114Z,95763.31
2023-05-14T09:24:43.327Z,95756.72
2023-05-14T09:26:46.062Z,95758.28
2023-05-14T09:28:48.802Z,95755.91
2023-05-14T09:30:52.577Z,95753.50
2023-05-14T09:32:55.969Z,95727.75
2023-05-14T09:35:00.111Z,95752.59
2023-05-14T09:37:05.114Z,95762.09
2023-05-14T09:39:07.874Z,95757.91
2023-05-14T09:41:10.777Z,95740.81
2023-05-14T09:43:14.010Z,95750.56
2023-05-14T09:45:17.212Z,95747.56
2023-05-14T09:47:20.049Z,95753.16
2023-05-14T09:49:23.601Z,95739.31
2023-05-14T09:51:31.477Z,95752.81
2023-05-14T09:53:35.594Z,95742.00
2023-05-14T09:55:38.987Z,95742.09
2023-05-14T09:57:41.724Z,95745.19
2023-05-14T09:59:44.514Z,95737.34
2023-05-14T10:01:47.631Z,95739.00
2023-05-14T10:03:51.124Z,95741.44
2023-05-14T10:05:53.958Z,95746.69
2023-05-14T10:08:00.274Z,95691.88
2023-05-14T10:10:08.126Z,95739.03
2023-05-14T10:12:11.085Z,95730.03
2023-05-14T10:14:19.026Z,95736.19
2023-05-14T10:16:29.220Z,95732.41
2023-05-14T10:18:36.873Z,95655.75
2023-05-14T10:20:41.635Z,95668.78
2023-05-14T10:22:44.403Z,95733.44
2023-05-14T10:24:52.533Z,95737.28
2023-05-14T10:26:55.466Z,95719.63
2023-05-14T10:28:59.113Z,95657.84
2023-05-14T10:31:01.948Z,95730.25
2023-05-14T10:33:09.177Z,95718.03
2023-05-14T10:35:22.883Z,95724.31
2023-05-14T10:37:27.486Z,95722.25
2023-05-14T10:39:48.616Z,95721.16
2023-05-14T10:41:51.348Z,95720.75
2023-05-14T10:43:54.140Z,95720.00
2023-05-14T10:45:57.343Z,95723.47
2023-05-14T10:48:00.211Z,95720.44
2023-05-14T10:50:06.097Z,95722.25
2023-05-14T10:52:09.781Z,95716.84
2023-05-14T10:54:13.412Z,95706.97
2023-05-14T10:56:17.955Z,95704.97
2023-05-14T10:58:20.815Z,95704.34
2023-05-14T11:00:27.704Z,95707.25
2023-05-14T11:02:32.259Z,95703.13
2023-05-14T11:04:35.013Z,95706.69
2023-05-14T11:06:41.547Z,95710.69
2023-05-14T11:08:46.314Z,95712.06
2023-05-14T11:10:50.092Z,95716.88
2023-05-14T11:12:54.194Z,95714.06
2023-05-14T11:14:59.105Z,95705.03
2023-05-14T11:17:02.064Z,95701.31
2023-05-14T11:19:05.996Z,95701.50
2023-05-14T11:21:08.893Z,95698.09
2023-05-14T11:23:11.658Z,95698.28
2023-05-14T11:25:15.853Z,95704.19
2023-05-14T11:27:19.459Z,95695.66
2023-05-14T11:29:23.582Z,95695.78
2023-05-14T11:31:26.732Z,95693.59
2023-05-14T11:33:29.685Z,95692.19
2023-05-14T11:35:33.628Z,95689.69
2023-05-14T11:37:36.701Z,95680.47
2023-05-14T11:39:40.329Z,95690.00
2023-05-14T11:41:45.616Z,95682.09
2023-05-14T11:43:48.951Z,95678.16
2023-05-14T11:45:54.423Z,95684.38
2023-05-14T11:47:57.219Z,95649.66
2023-05-14T11:50:00.834Z,95636.28
2023-05-14T11:52:04.767Z,95681.38
2023-05-14T11:54:07.448Z,95683.94
2023-05-14T11:56:11.113Z,95671.47
2023-05-14T11:58:14.278Z,95670.66
2023-05-14T12:00:21.664Z,95674.41
2023-05-14T12:02:29.861Z,95662.44
2023-05-14T12:04:33.171Z,95593.16
2023-05-14T12:06:35.908Z,95667.34
2023-05-14T12:08:38.642Z,95659.47
2023-05-14T12:10:43.104Z,95655.16
2023-05-14T12:12:47.922Z,95652.81
2023-05-14T12:14:54.392Z,95654.22
2023-05-14T12:16:57.152Z,95658.84
2023-05-14T12:19:02.561Z,95640.31
2023-05-14T12:21:08.286Z,95637.13
2023-05-14T12:23:11.950Z,95639.97
2023-05-14T12:25:14.910Z,95634.09
2023-05-14T12:27:17.664Z,95629.72
2023-05-14T12:29:22.001Z,95627.59
2023-05-14T12:31:29.766Z,95621.75
2023-05-14T12:33:32.529Z,95516.69
2023-05-14T12:35:37.110Z,95622.94
2023-05-14T12:37:40.248Z,95609.97
2023-05-14T12:39:42.996Z,95612.56
2023-05-14T12:41:45.751Z,95603.44
2023-05-14T12:43:52.134Z,95607.72
2023-05-14T12:45:55.372Z,95601.63
2023-05-14T12:47:58.117Z,95612.22
2023-05-14T12:50:00.907Z,95612.03
2023-05-14T12:52:25.736Z,95607.50
2023-05-14T12:54:28.259Z,95620.41
2023-05-14T12:56:32.060Z,95625.38
2023-05-14T12:58:34.819Z,95617.69
2023-05-14T13:00:37.711Z,95620.13
2023-05-14T13:02:42.057Z,95613.00
2023-05-14T13:04:46.427Z,95625.38
2023-05-14T13:06:49.290Z,95614.53
2023-05-14T13:08:53.377Z,95605.53
2023-05-14T13:10:56.962Z,95608.13
2023-05-14T13:12:59.695Z,95603.31
2023-05-14T13:15:02.603Z,95604.09
2023-05-14T13:17:07.052Z,95602.69
2023-05-14T13:19:10.029Z,95611.00
2023-05-14T13:21:12.961Z,95545.31
2023-05-14T13:23:15.893Z,95540.41
2023-05-14T13:25:20.632Z,95603.00
2023-05-14T13:27:23.352Z,95599.34
2023-05-14T13:29:26.169Z,95595.03
2023-05-14T13:31:29.033Z,95603.38
2023-05-14T13:33:31.878Z,95603.06
2023-05-14T13:35:35.075Z,95600.16
2023-05-14T13:37:38.043Z,95593.41
2023-05-14T13:39:41.211Z,95596.09
2023-05-14T13:41:45.586Z,95560.81
2023-05-14T13:43:48.336Z,95591.81
2023-05-14T13:45:51.137Z,95451.03
2023-05-14T13:47:53.943Z,95586.47
2023-05-14T13:49:57.536Z,95592.75
2023-05-14T13:52:00.379Z,95591.34
2023-05-14T13:54:03.391Z,95600.34
2023-05-14T13:56:08.523Z,95597.38
2023-05-14T13:58:12.653Z,95615.13
2023-05-14T14:00:16.244Z,95611.81
2023-05-14T14:02:19.188Z,95615.88
2023-05-14T14:04:22.198Z,95617.44
2023-05-14T14:06:27.222Z,95610.66
2023-05-14T14:08:31.105Z,95601.59
2023-05-14T14:10:33.915Z,95621.75
2023-05-14T14:12:36.774Z,95534.41
2023-05-14T14:14:41.036Z,95620.38
2023-05-14T14:16:44.024Z,95612.66
2023-05-14T14:18:46.780Z,95606.72
2023-05-14T14:20:49.590Z,95553.72
2023-05-14T14:22:52.391Z,95466.25
2023-05-14T14:24:55.150Z,95539.41
2023-05-14T14:26:57.854Z,95581.34
2023-05-14T14:29:00.586Z,95591.38
2023-05-14T14:31:04.946Z,95428.84
2023-05-14T14:33:07.818Z,95588.47
2023-05-14T14:35:11.050Z,95596.03
2023-05-14T14:37:13.897Z,95589.56
2023-05-14T14:39:16.879Z,95587.69
2023-05-14T14:41:19.725Z,95597.63
2023-05-14T14:43:22.528Z,95597.13
2023-05-14T14:45:25.705Z,95580.44
2023-05-14T14:47:30.537Z,95589.31
2023-05-14T14:49:33.280Z,95579.34
2023-05-14T14:51:36.078Z,95582.03
2023-05-14T14:53:40.084Z,95594.41
2023-05-14T14:55:42.819Z,95582.84
2023-05-14T14:57:45.500Z,95577.72
2023-05-14T14:59:48.427Z,95582.56
2023-05-14T15:01:51.162Z,95579.88
2023-05-14T15:03:55.288Z,95574.78
2023-05-14T15:05:58.127Z,95590.06
2023-05-14T15:08:00.932Z,95526.44
2023-05-14T15:10:03.721Z,95592.88
2023-05-14T15:12:08.810Z,95585.53
2023-05-14T15:14:11.515Z,95577.31
2023-05-14T15:16:14.425Z,95577.34
2023-05-14T15:18:17.139Z,95582.72
2023-05-14T15:20:21.209Z,95473.50
2023-05-14T15:22:24.025Z,95571.81
2023-05-14T15:24:27.196Z,95577.31
2023-05-14T15:26:29.888Z,95573.25
2023-05-14T15:28:33.249Z,95570.81
2023-05-14T15:30:36.049Z,95572.78
2023-05-14T15:32:38.843Z,95571.50
2023-05-14T15:34:41.867Z,95563.78
2023-05-14T15:36:45.932Z,95560.34
2023-05-14T15:38:48.993Z,95562.47
2023-05-14T15:40:51.804Z,95569.81
2023-05-14T15:42:54.657Z,95567.88
2023-05-14T15:44:57.410Z,95576.13
2023-05-14T15:47:00.191Z,95454.25
2023-05-14T15:49:02.968Z,95566.59
2023-05-14T15:51:06.239Z,95570.59
2023-05-14T15:53:11.952Z,95559.72
2023-05-14T15:55:15.227Z,95565.75
2023-05-14T15:57:19.855Z,95554.25
2023-05-14T15:59:24.530Z,95557.69
2023-05-14T16:01:27.371Z,95558.47
2023-05-14T16:03:30.162Z,95481.41
2023-05-14T16:05:33.149Z,95560.81
2023-05-14T16:07:36.230Z,95556.81
2023-05-14T16:09:40.336Z,95494.66
2023-05-14T16:11:43.198Z,95553.31
2023-05-14T16:13:45.944Z,95561.56
2023-05-14T16:15:48.765Z,95541.97
2023-05-14T16:17:51.594Z,95543.25
2023-05-14T16:19:56.317Z,95551.34
2023-05-14T16:21:59.430Z,95548.19
2023-05-14T16:24:02.274Z,95543.81
2023-05-14T16:26:06.619Z,95549.00
2023-05-14T16:28:09.317Z,95557.41
2023-05-14T16:30:12.650Z,95545.31
2023-05-14T16:32:15.470Z,95540.75
2023-05-14T16:34:18.247Z,95549.69
2023-05-14T16:36:21.034Z,95553.03
2023-05-14T16:38:23.778Z,95553.34
2023-05-14T16:40:26.794Z,95548.50
2023-05-14T16:42:30.912Z,95552.06
2023-05-14T16:44:33.662Z,95557.63
2023-05-14T16:46:36.671Z,95562.06
2023-05-14T16:48:39.456Z,95549.25
2023-05-14T16:50:42.221Z,95545.97
2023-05-14T16:52:44.911Z,95558.50
2023-05-14T16:54:47.659Z,95547.91
2023-05-14T16:56:50.703Z,95467.78
2023-05-14T16:58:54.784Z,95542.00
2023-05-14T17:00:57.600Z,95538.94
2023-05-14T17:03:00.406Z,95544.19
2023-05-14T17:05:03.968Z,95541.78
2023-05-14T17:07:06.770Z,95544.94
2023-05-14T17:09:09.760Z,95545.88
2023-05-14T17:11:12.593Z,95553.81
2023-05-14T17:13:15.391Z,95471.19
2023-05-14T17:15:19.913Z,95482.56
2023-05-14T17:17:22.619Z,95548.03
2023-05-14T17:19:25.389Z,95540.81
2023-05-14T17:21:28.090Z,95553.59
2023-05-14T17:23:30.834Z,95545.31
2023-05-14T17:25:34.151Z,95470.28
2023-05-14T17:27:36.953Z,95432.63
2023-05-14T17:29:39.648Z,95561.53
2023-05-14T17:31:43.743Z,95555.09
2023-05-14T17:33:46.721Z,95561.38
2023-05-14T17:35:49.504Z,95569.47
2023-05-14T17:37:52.273Z,95522.97
2023-05-14T17:39:54.981Z,95562.28
2023-05-14T17:41:57.706Z,95448.16
2023-05-14T17:44:00.424Z,95564.41
2023-05-14T17:46:03.528Z,95502.69
2023-05-14T17:48:07.752Z,95571.44
2023-05-14T17:50:11.162Z,95575.88
2023-05-14T17:52:14.114Z,95573.88
2023-05-14T17:54:16.768Z,95575.81
2023-05-14T17:56:19.829Z,95559.56
2023-05-14T17:58:22.526Z,95578.31
2023-05-14T18:00:25.145Z,95582.50
2023-05-14T18:02:27.822Z,95556.53
2023-05-14T18:04:31.913Z,95572.50
2023-05-14T18:06:34.817Z,95569.56
2023-05-14T18:08:37.460Z,95539.91
2023-05-14T18:10:40.107Z,95572.09
2023-05-14T18:12:42.909Z,95575.06
2023-05-14T18:14:45.847Z,95580.69
2023-05-14T18:16:48.562Z,95582.16
2023-05-14T18:18:52.237Z,95577.53
2023-05-14T18:20:56.235Z,95582.34
2023-05-14T18:22:58.954Z,95582.28
2023-05-14T18:25:01.669Z,95583.88
2023-05-14T18:27:04.436Z,95585.34
2023-05-14T18:29:07.042Z,95583.66
2023-05-14T18:31:09.880Z,95580.63
2023-05-14T18:33:12.623Z,95581.28
2023-05-14T18:35:15.346Z,95519.59
2023-05-14T18:37:19.337Z,95592.53
2023-05-14T18:39:21.959Z,95589.19
2023-05-14T18:41:24.676Z,95598.75
2023-05-14T18:43:27.333Z,95586.75
2023-05-14T18:45:30.084Z,95596.66
2023-05-14T18:47:33.563Z,95587.34
2023-05-14T18:49:38.609Z,95537.25
2023-05-14T18:51:41.414Z,95506.59
2023-05-14T18:53:45.507Z,95508.63
2023-05-14T18:55:48.302Z,95587.94
2023-05-14T18:57:51.378Z,95593.03
2023-05-14T18:59:54.315Z,95589.66
2023-05-14T19:01:57.212Z,95593.22
2023-05-14T19:04:01.321Z,95587.75
2023-05-14T19:06:05.338Z,95582.94
2023-05-14T19:08:08.673Z,95581.06
2023-05-14T19:10:14.004Z,95581.88
2023-05-14T19:12:16.808Z,95578.44
2023-05-14T19:14:20.603Z,95590.81
2023-05-14T19:16:24.118Z,95593.50
2023-05-14T19:18:27.466Z,95601.56
2023-05-14T19:20:30.243Z,95599.09
2023-05-14T19:22:33.089Z,95601.88
2023-05-14T19:24:37.706Z,95596.28
2023-05-14T19:26:41.980Z,95600.84
2023-05-14T19:28:44.700Z,95598.91
2023-05-14T19:30:47.744Z,95598.69
2023-05-14T19:32:50.573Z,95607.00
2023-05-14T19:34:53.325Z,95600.78
2023-05-14T19:36:56.309Z,95607.81
2023-05-14T19:38:59.112Z,95604.56
2023-05-14T19:41:01.859Z,95598.63
2023-05-14T19:43:07.787Z,95601.34
2023-05-14T19:45:11.184Z,95592.44
2023-05-14T19:47:14.358Z,95436.66
2023-05-14T19:49:17.168Z,95611.34
2023-05-14T19:51:19.917Z,95610.56
2023-05-14T19:53:23.990Z,95617.03
2023-05-14T19:55:26.961Z,95615.97
2023-05-14T19:57:29.974Z,95608.94
2023-05-14T19:59:34.632Z,95608.44
2023-05-14T20:01:37.459Z,95605.19
2023-05-14T20:03:40.443Z,95611.69
2023-05-14T20:05:45.075Z,95611.41
2023-05-14T20:07:48.840Z,95610.59
2023-05-14T20:09:51.599Z,95547.56
2023-05-14T20:11:54.252Z,95616.00
2023-05-14T20:13:56.904Z,95612.75
2023-05-14T20:16:01.067Z,95539.72
2023-05-14T20:18:03.792Z,95612.19
2023-05-14T20:20:09.726Z,95569.31
2023-05-14T20:22:12.397Z,95512.78
2023-05-14T20:24:15.115Z,95602.50
2023-05-14T20:26:17.836Z,95603.56
2023-05-14T20:28:20.745Z,95603.31
2023-05-14T20:30:23.611Z,95513.19
2023-05-14T20:32:27.907Z,95602.44
2023-05-14T20:34:30.569Z,95609.16
2023-05-14T20:36:33.256Z,95604.00
2023-05-14T20:38:35.950Z,95598.03
2023-05-14T20:40:38.583Z,95592.38
2023-05-14T20:42:41.683Z,95579.19
2023-05-14T20:44:44.466Z,95584.06
2023-05-14T20:46:50.446Z,95565.16
2023-05-14T20:48:56.987Z,95590.19
2023-05-14T20:50:59.663Z,95594.53
2023-05-14T20:53:02.333Z,95578.69
2023-05-14T20:55:05.620Z,95573.00
2023-05-14T20:57:08.414Z,95513.16
2023-05-14T20:59:11.081Z,95587.78
2023-05-14T21:01:13.780Z,95588.59
2023-05-14T21:03:16.908Z,95582.94
2023-05-14T21:05:22.074Z,95581.84
2023-05-14T21:07:25.180Z,95586.66
2023-05-14T21:09:28.627Z,95590.66
2023-05-14T21:11:31.354Z,95454.72
2023-05-14T21:13:34.104Z,95582.34
2023-05-14T21:15:36.867Z,95583.41
2023-05-14T21:17:39.780Z,95589.06
2023-05-14T21:19:42.592Z,95582.59
2023-05-14T21:21:47.347Z,95582.88
2023-05-14T21:23:50.436Z,95426.91
2023-05-14T21:25:54.733Z,95570.44
2023-05-14T21:27:57.483Z,95580.41
2023-05-14T21:30:00.289Z,95582.50
2023-05-14T21:32:03.036Z,95579.56
2023-05-14T21:34:05.809Z,95522.44
2023-05-14T21:36:09.073Z,95412.38
2023-05-14T21:38:13.228Z,95585.16
2023-05-14T21:40:16.274Z,95576.75
2023-05-14T21:42:20.931Z,95574.59
2023-05-14T21:44:23.712Z,95578.38
2023-05-14T21:46:28.818Z,95576.22
2023-05-14T21:48:31.709Z,95570.81
2023-05-14T21:50:34.517Z,95237.13
2023-05-14T21:52:37.978Z,95577.00
2023-05-14T21:54:42.031Z,95573.50
2023-05-14T21:56:44.791Z,95576.16
2023-05-14T21:58:47.543Z,95581.50
2023-05-14T22:00:50.436Z,95460.66
2023-05-14T22:02:54.053Z,95576.09
2023-05-14T22:04:56.793Z,95565.88
2023-05-14T22:06:59.568Z,95565.25
2023-05-14T22:09:02.279Z,95569.97
2023-05-14T22:11:06.498Z,95569.91
2023-05-14T22:13:09.242Z,95576.69
2023-05-14T22:15:13.044Z,95565.13
2023-05-14T22:17:16.004Z,95565.47
2023-05-14T22:19:18.789Z,95559.56
2023-05-14T22:21:21.527Z,95373.25
2023-05-14T22:23:24.338Z,95563.34
2023-05-14T22:25:27.226Z,95561.13
2023-05-14T22:27:31.724Z,95555.72
2023-05-14T22:29:35.711Z,95362.47
2023-05-14T22:31:39.553Z,95491.97
2023-05-14T22:33:42.310Z,95548.72
2023-05-14T22:35:45.395Z,95469.81
2023-05-14T22:37:48.221Z,95550.75
2023-05-14T22:39:50.963Z,95510.69
2023-05-14T22:41:55.121Z,95558.00
2023-05-14T22:43:59.392Z,95563.97
2023-05-14T22:46:02.197Z,95569.13
2023-05-14T22:48:05.378Z,95507.16
2023-05-14T22:50:11.483Z,95383.44
2023-05-14T22:52:14.218Z,95566.47
2023-05-14T22:54:17.595Z,95568.63
2023-05-14T22:56:22.131Z,95559.72
2023-05-14T22:58:24.962Z,95554.25
2023-05-14T23:00:29.006Z,95564.44
2023-05-14T23:02:31.805Z,95379.56
2023-05-14T23:04:34.672Z,95556.56
2023-05-14T23:06:37.434Z,95541.88
2023-05-14T23:08:40.237Z,95552.81
2023-05-14T23:10:42.946Z,95556.25
2023-05-14T23:12:45.708Z,95553.97
2023-05-14T23:14:48.420Z,95393.94
2023-05-14T23:16:52.447Z,95555.25
2023-05-14T23:18:55.281Z,95547.81
2023-05-14T23:20:58.206Z,95538.97
2023-05-14T23:23:00.917Z,95543.28
2023-05-14T23:25:03.782Z,95545.72
2023-05-14T23:27:06.662Z,95539.81
2023-05-14T23:29:09.331Z,95512.72
2023-05-14T23:31:12.077Z,95494.59
2023-05-14T23:33:16.390Z,95543.06
2023-05-14T23:35:19.328Z,95544.69
2023-05-14T23:37:22.118Z,95533.94
2023-05-14T23:39:24.958Z,95488.13
2023-05-14T23:41:27.708Z,95527.50
2023-05-14T23:43:30.557Z,95534.94
2023-05-14T23:45:33.584Z,95542.44
2023-05-14T23:47:36.547Z,95530.28
2023-05-14T23:49:40.798Z,95456.56
2023-05-14T23:51:43.544Z,95529.41
2023-05-14T23:53:46.250Z,95528.31
2023-05-14T23:55:49.051Z,95523.81
2023-05-14T23:57:51.901Z,95523.53
2023-05-14T23:59:54.622Z,95350.41
